createdAt,value
2023-01-13T00:01:48.733Z,100717.31
2023-01-13T00:04:15.675Z,100721.47
2023-01-13T00:06:42.624Z,100719.75
2023-01-13T00:09:09.584Z,100717.22
2023-01-13T00:11:36.595Z,100706.91
2023-01-13T00:14:03.679Z,100710.19
2023-01-13T00:16:30.591Z,100709.50
2023-01-13T00:18:57.697Z,100712.88
2023-01-13T00:21:24.970Z,100698.53
2023-01-13T00:23:54.097Z,100688.50
2023-01-13T00:26:23.896Z,100704.50
2023-01-13T00:28:51.753Z,100701.03
2023-01-13T00:31:21.404Z,100706.09
2023-01-13T00:33:51.631Z,100708.66
2023-01-13T00:36:20.592Z,100702.84
2023-01-13T00:38:48.227Z,100702.72
2023-01-13T00:41:17.894Z,100702.56
2023-01-13T00:43:45.469Z,100701.84
2023-01-13T00:46:15.100Z,100700.63
2023-01-13T00:48:42.300Z,100697.22
2023-01-13T00:51:13.011Z,100700.69
2023-01-13T00:53:43.458Z,100696.31
2023-01-13T00:56:24.326Z,100678.22
2023-01-13T00:58:58.937Z,100679.97
2023-01-13T01:01:26.171Z,100680.25
2023-01-13T01:03:54.619Z,100671.44
2023-01-13T01:06:26.991Z,100661.81
2023-01-13T01:08:56.922Z,100652.28
2023-01-13T01:11:30.178Z,100654.66
2023-01-13T01:13:59.141Z,100646.97
2023-01-13T01:16:28.642Z,100659.91
2023-01-13T01:18:56.289Z,100647.16
2023-01-13T01:21:24.899Z,100643.63
2023-01-13T01:23:52.220Z,100651.13
2023-01-13T01:26:27.206Z,100649.41
2023-01-13T01:28:54.720Z,100644.41
2023-01-13T01:31:24.344Z,100657.16
2023-01-13T01:33:51.959Z,100643.59
2023-01-13T01:36:20.623Z,100631.78
2023-01-13T01:38:49.088Z,100644.31
2023-01-13T01:41:23.783Z,100630.91
2023-01-13T01:44:07.032Z,100633.38
2023-01-13T01:46:44.760Z,100628.22
2023-01-13T01:49:17.760Z,100598.78
2023-01-13T01:51:52.529Z,100607.00
2023-01-13T01:54:34.724Z,100603.72
2023-01-13T01:57:01.711Z,100604.22
2023-01-13T01:59:32.255Z,100596.84
2023-01-13T02:01:59.512Z,100601.91
2023-01-13T02:04:32.859Z,100582.25
2023-01-13T02:07:01.556Z,100597.63
2023-01-13T02:09:29.058Z,100592.63
2023-01-13T02:12:14.622Z,100591.88
2023-01-13T02:14:42.446Z,100592.78
2023-01-13T02:17:21.425Z,100580.09
2023-01-13T02:20:28.915Z,100591.91
2023-01-13T02:23:42.018Z,100598.78
2023-01-13T02:26:39.995Z,100588.88
2023-01-13T02:29:53.650Z,100595.69
2023-01-13T02:32:33.325Z,100581.13
2023-01-13T02:35:12.205Z,100592.03
2023-01-13T02:37:42.974Z,100591.97
2023-01-13T02:40:28.262Z,100594.53
2023-01-13T02:43:39.705Z,100602.06
2023-01-13T02:46:14.547Z,100606.63
2023-01-13T02:48:44.813Z,100603.72
2023-01-13T02:51:16.845Z,100614.59
2023-01-13T02:53:51.106Z,100607.91
2023-01-13T02:56:19.717Z,100608.81
2023-01-13T02:58:47.540Z,100611.28
2023-01-13T03:01:14.720Z,100607.00
2023-01-13T03:03:41.787Z,100606.75
2023-01-13T03:06:44.181Z,100610.13
2023-01-13T03:09:31.080Z,100606.00
2023-01-13T03:12:19.145Z,100595.75
2023-01-13T03:15:10.661Z,100595.88
2023-01-13T03:17:40.342Z,100584.56
2023-01-13T03:20:22.062Z,100587.41
2023-01-13T03:23:03.379Z,100595.34
2023-01-13T03:25:37.259Z,100589.59
2023-01-13T03:28:08.831Z,100590.19
2023-01-13T03:30:42.566Z,100596.75
2023-01-13T03:33:17.837Z,100595.22
2023-01-13T03:35:49.339Z,100581.25
2023-01-13T03:38:26.019Z,100589.03
2023-01-13T03:40:56.747Z,100581.41
2023-01-13T03:43:54.157Z,100581.28
2023-01-13T03:46:32.369Z,100577.56
2023-01-13T03:49:03.235Z,100588.13
2023-01-13T03:51:33.096Z,100585.81
2023-01-13T03:54:04.881Z,100596.91
2023-01-13T03:56:42.410Z,100604.50
2023-01-13T03:59:16.666Z,100603.44
2023-01-13T04:01:51.616Z,100593.84
2023-01-13T04:04:24.639Z,100598.28
2023-01-13T04:07:30.852Z,100590.34
2023-01-13T04:10:01.844Z,100591.19
2023-01-13T04:13:04.274Z,100596.44
2023-01-13T04:15:41.098Z,100597.88
2023-01-13T04:18:30.691Z,100600.19
2023-01-13T04:21:00.307Z,100609.38
2023-01-13T04:23:28.263Z,100605.81
2023-01-13T04:25:56.053Z,100603.13
2023-01-13T04:28:23.404Z,100601.84
2023-01-13T04:30:50.757Z,100608.88
2023-01-13T04:33:19.433Z,100608.66
2023-01-13T04:35:47.976Z,100605.94
2023-01-13T04:38:17.748Z,100607.69
2023-01-13T04:40:45.264Z,100610.50
2023-01-13T04:43:12.520Z,100601.25
2023-01-13T04:45:39.480Z,100608.66
2023-01-13T04:48:06.744Z,100600.34
2023-01-13T04:50:34.309Z,100610.38
2023-01-13T04:53:01.768Z,100612.13
2023-01-13T04:55:29.095Z,100606.94
2023-01-13T04:57:56.166Z,100594.44
2023-01-13T05:00:23.924Z,100603.63
2023-01-13T05:02:51.534Z,100605.44
2023-01-13T05:05:19.232Z,100608.63
2023-01-13T05:07:46.604Z,100605.97
2023-01-13T05:10:13.789Z,100606.44
2023-01-13T05:12:59.672Z,100620.81
2023-01-13T05:15:45.433Z,100627.63
2023-01-13T05:18:13.018Z,100628.59
2023-01-13T05:20:40.047Z,100626.00
2023-01-13T05:23:25.641Z,100632.13
2023-01-13T05:25:52.793Z,100614.00
2023-01-13T05:28:19.756Z,100618.25
2023-01-13T05:30:49.442Z,100625.19
2023-01-13T05:33:20.407Z,100623.34
2023-01-13T05:35:48.253Z,100628.47
2023-01-13T05:38:15.981Z,100626.81
2023-01-13T05:41:01.952Z,100633.56
2023-01-13T05:43:29.311Z,100626.09
2023-01-13T05:45:56.065Z,100621.66
2023-01-13T05:48:25.280Z,100629.31
2023-01-13T05:50:53.996Z,100629.09
2023-01-13T05:53:21.738Z,100634.06
2023-01-13T05:55:49.588Z,100630.16
2023-01-13T05:58:18.125Z,100622.59
2023-01-13T06:00:45.489Z,100622.41
2023-01-13T06:03:13.029Z,100619.88
2023-01-13T06:05:41.190Z,100616.56
2023-01-13T06:08:09.115Z,100618.09
2023-01-13T06:10:36.702Z,100611.38
2023-01-13T06:13:04.632Z,100615.66
2023-01-13T06:15:32.450Z,100595.41
2023-01-13T06:18:01.892Z,100620.63
2023-01-13T06:20:28.928Z,100626.00
2023-01-13T06:22:55.849Z,100611.34
2023-01-13T06:25:28.719Z,100608.81
2023-01-13T06:27:56.978Z,100611.28
2023-01-13T06:30:23.903Z,100615.41
2023-01-13T06:32:55.421Z,100610.53
2023-01-13T06:35:29.875Z,100608.97
2023-01-13T06:37:59.378Z,100614.78
2023-01-13T06:40:26.491Z,100622.09
2023-01-13T06:43:16.130Z,100609.59
2023-01-13T06:45:48.008Z,100617.09
2023-01-13T06:48:16.064Z,100623.22
2023-01-13T06:50:43.386Z,100602.84
2023-01-13T06:53:10.779Z,100612.06
2023-01-13T06:55:37.887Z,100602.81
2023-01-13T06:58:05.147Z,100609.28
2023-01-13T07:00:38.124Z,100608.16
2023-01-13T07:03:14.607Z,100608.50
2023-01-13T07:05:43.338Z,100598.59
2023-01-13T07:08:10.999Z,100602.53
2023-01-13T07:10:38.268Z,100609.59
2023-01-13T07:13:24.695Z,100615.50
2023-01-13T07:15:59.468Z,100606.28
2023-01-13T07:18:28.665Z,100606.41
2023-01-13T07:20:57.363Z,100606.28
2023-01-13T07:23:25.671Z,100616.63
2023-01-13T07:25:55.831Z,100614.78
2023-01-13T07:28:23.640Z,100635.47
2023-01-13T07:30:50.574Z,100639.09
2023-01-13T07:33:18.710Z,100630.31
2023-01-13T07:35:46.907Z,100639.53
2023-01-13T07:38:14.085Z,100645.03
2023-01-13T07:40:41.117Z,100653.41
2023-01-13T07:43:30.119Z,100649.13
2023-01-13T07:46:05.454Z,100654.25
2023-01-13T07:48:34.626Z,100644.81
2023-01-13T07:51:06.992Z,100656.44
2023-01-13T07:53:34.931Z,100644.22
2023-01-13T07:56:03.765Z,100646.06
2023-01-13T07:58:30.967Z,100641.16
2023-01-13T08:00:58.313Z,100641.03
2023-01-13T08:03:26.651Z,100634.88
2023-01-13T08:05:53.707Z,100636.75
2023-01-13T08:08:20.633Z,100625.44
2023-01-13T08:10:47.533Z,100636.94
2023-01-13T08:13:20.335Z,100632.34
2023-01-13T08:15:52.412Z,100632.06
2023-01-13T08:18:22.413Z,100638.88
2023-01-13T08:20:49.966Z,100636.69
2023-01-13T08:23:16.972Z,100639.00
2023-01-13T08:25:44.426Z,100642.44
2023-01-13T08:28:12.156Z,100648.34
2023-01-13T08:30:39.403Z,100643.00
2023-01-13T08:33:08.662Z,100646.09
2023-01-13T08:35:40.132Z,100638.34
2023-01-13T08:38:08.210Z,100645.28
2023-01-13T08:40:35.523Z,100648.75
2023-01-13T08:43:02.881Z,100634.84
2023-01-13T08:45:29.847Z,100635.06
2023-01-13T08:47:56.800Z,100634.66
2023-01-13T08:50:23.826Z,100631.09
2023-01-13T08:52:50.815Z,100625.53
2023-01-13T08:55:17.723Z,100630.41
2023-01-13T08:57:44.763Z,100623.09
2023-01-13T09:00:13.129Z,100626.63
2023-01-13T09:02:40.106Z,100624.00
2023-01-13T09:05:08.506Z,100619.09
2023-01-13T09:07:37.613Z,100628.28
2023-01-13T09:10:07.363Z,100617.88
2023-01-13T09:12:53.343Z,100609.38
2023-01-13T09:15:21.616Z,100605.47
2023-01-13T09:17:48.650Z,100608.69
2023-01-13T09:20:15.911Z,100605.34
2023-01-13T09:22:42.834Z,100601.50
2023-01-13T09:25:10.306Z,100605.66
2023-01-13T09:27:37.435Z,100612.97
2023-01-13T09:30:05.941Z,100600.44
2023-01-13T09:32:33.192Z,100598.56
2023-01-13T09:35:00.282Z,100602.53
2023-01-13T09:37:31.652Z,100600.69
2023-01-13T09:39:58.571Z,100599.34
2023-01-13T09:42:52.925Z,100588.28
2023-01-13T09:45:42.729Z,100594.47
2023-01-13T09:48:16.901Z,100584.31
2023-01-13T09:51:02.335Z,100587.59
2023-01-13T09:53:33.138Z,100586.28
2023-01-13T09:56:00.604Z,100588.09
2023-01-13T09:58:27.602Z,100589.53
2023-01-13T10:01:20.220Z,100593.34
2023-01-13T10:03:49.432Z,100589.09
2023-01-13T10:06:19.538Z,100604.09
2023-01-13T10:08:48.494Z,100595.53
2023-01-13T10:11:43.114Z,100599.00
2023-01-13T10:14:18.493Z,100594.81
2023-01-13T10:17:11.972Z,100595.72
2023-01-13T10:19:48.664Z,100600.25
2023-01-13T10:22:37.431Z,100598.59
2023-01-13T10:25:39.439Z,100602.47
2023-01-13T10:28:17.067Z,100607.78
2023-01-13T10:30:47.850Z,100599.00
2023-01-13T10:33:17.669Z,100606.53
2023-01-13T10:35:55.242Z,100599.47
2023-01-13T10:38:27.141Z,100602.97
2023-01-13T10:41:00.219Z,100607.63
2023-01-13T10:43:29.722Z,100603.41
2023-01-13T10:46:06.282Z,100607.59
2023-01-13T10:48:42.405Z,100596.84
2023-01-13T10:51:47.711Z,100591.84
2023-01-13T10:54:22.402Z,100593.69
2023-01-13T10:56:50.795Z,100591.03
2023-01-13T10:59:22.415Z,100591.25
2023-01-13T11:02:26.993Z,100596.97
2023-01-13T11:04:54.206Z,100598.44
2023-01-13T11:07:30.181Z,100598.59
2023-01-13T11:10:09.281Z,100603.66
2023-01-13T11:12:54.218Z,100602.97
2023-01-13T11:15:25.137Z,100596.97
2023-01-13T11:18:01.494Z,100588.56
2023-01-13T11:20:34.069Z,100595.16
2023-01-13T11:23:07.558Z,100596.19
2023-01-13T11:25:45.230Z,100601.75
2023-01-13T11:28:30.767Z,100600.94
2023-01-13T11:31:25.534Z,100610.28
2023-01-13T11:34:21.382Z,100608.75
2023-01-13T11:36:52.566Z,100604.22
2023-01-13T11:39:27.737Z,100610.19
2023-01-13T11:42:20.349Z,100610.03
2023-01-13T11:45:07.117Z,100611.34
2023-01-13T11:47:35.631Z,100612.88
2023-01-13T11:50:03.665Z,100613.44
2023-01-13T11:52:42.881Z,100610.59
2023-01-13T11:55:22.667Z,100618.56
2023-01-13T11:58:00.427Z,100611.53
2023-01-13T12:00:40.815Z,100617.22
2023-01-13T12:03:10.689Z,100620.59
2023-01-13T12:05:44.475Z,100615.56
2023-01-13T12:08:31.857Z,100611.41
2023-01-13T12:11:06.072Z,100613.94
2023-01-13T12:14:04.753Z,100615.84
2023-01-13T12:16:32.773Z,100622.69
2023-01-13T12:19:11.676Z,100620.69
2023-01-13T12:21:40.542Z,100620.75
2023-01-13T12:24:10.832Z,100621.00
2023-01-13T12:26:42.740Z,100636.16
2023-01-13T12:29:15.019Z,100624.81
2023-01-13T12:31:43.897Z,100624.38
2023-01-13T12:34:10.800Z,100617.56
2023-01-13T12:36:40.743Z,100631.00
2023-01-13T12:39:19.991Z,100631.50
2023-01-13T12:42:53.488Z,100627.31
2023-01-13T12:45:40.563Z,100628.41
2023-01-13T12:48:27.371Z,100627.09
2023-01-13T12:51:00.805Z,100625.59
2023-01-13T12:53:32.953Z,100631.44
2023-01-13T12:56:37.346Z,100630.59
2023-01-13T12:59:19.913Z,100632.69
2023-01-13T13:01:52.594Z,100630.66
2023-01-13T13:04:21.465Z,100635.56
2023-01-13T13:07:10.511Z,100629.00
2023-01-13T13:09:45.119Z,100638.88
2023-01-13T13:12:49.393Z,100636.81
2023-01-13T13:15:25.710Z,100647.56
2023-01-13T13:18:17.359Z,100640.97
2023-01-13T13:21:04.308Z,100640.47
2023-01-13T13:23:40.425Z,100646.25
2023-01-13T13:26:13.151Z,100640.31
2023-01-13T13:28:49.017Z,100653.53
2023-01-13T13:31:18.838Z,100645.78
2023-01-13T13:34:11.034Z,100651.06
2023-01-13T13:36:53.132Z,100648.16
2023-01-13T13:39:49.282Z,100655.22
2023-01-13T13:42:39.976Z,100664.91
2023-01-13T13:45:51.950Z,100655.88
2023-01-13T13:48:27.170Z,100657.78
2023-01-13T13:51:02.368Z,100660.59
2023-01-13T13:53:40.287Z,100670.66
2023-01-13T13:56:18.866Z,100668.84
2023-01-13T13:58:47.805Z,100660.44
2023-01-13T14:01:29.086Z,100666.47
2023-01-13T14:04:12.637Z,100663.09
2023-01-13T14:06:50.612Z,100663.69
2023-01-13T14:09:19.070Z,100654.28
2023-01-13T14:11:56.929Z,100667.47
2023-01-13T14:14:25.089Z,100662.03
2023-01-13T14:16:54.895Z,100662.91
2023-01-13T14:19:35.574Z,100659.69
2023-01-13T14:22:05.649Z,100653.50
2023-01-13T14:24:33.032Z,100652.94
2023-01-13T14:27:11.398Z,100649.44
2023-01-13T14:29:38.523Z,100657.03
2023-01-13T14:32:07.436Z,100645.38
2023-01-13T14:34:35.599Z,100659.69
2023-01-13T14:37:03.832Z,100655.34
2023-01-13T14:39:40.519Z,100653.41
2023-01-13T14:42:14.187Z,100648.47
2023-01-13T14:44:46.157Z,100655.47
2023-01-13T14:47:25.527Z,100651.91
2023-01-13T14:50:16.247Z,100655.38
2023-01-13T14:52:57.400Z,100663.19
2023-01-13T14:55:29.519Z,100663.88
2023-01-13T14:58:21.415Z,100673.06
2023-01-13T15:00:50.107Z,100667.22
2023-01-13T15:03:18.817Z,100675.16
2023-01-13T15:05:52.072Z,100667.16
2023-01-13T15:08:28.872Z,100666.97
2023-01-13T15:11:00.083Z,100658.00
2023-01-13T15:13:36.323Z,100656.03
2023-01-13T15:16:07.018Z,100640.94
2023-01-13T15:18:35.777Z,100662.25
2023-01-13T15:21:02.621Z,100667.91
2023-01-13T15:23:29.637Z,100658.72
2023-01-13T15:25:56.541Z,100667.06
2023-01-13T15:28:25.513Z,100658.56
2023-01-13T15:30:54.464Z,100656.22
2023-01-13T15:33:22.351Z,100654.66
2023-01-13T15:35:51.263Z,100646.84
2023-01-13T15:38:21.392Z,100648.94
2023-01-13T15:40:49.963Z,100645.44
2023-01-13T15:43:38.664Z,100643.59
2023-01-13T15:46:36.156Z,100637.53
2023-01-13T15:49:10.086Z,100649.31
2023-01-13T15:51:37.151Z,100638.31
2023-01-13T15:54:04.068Z,100654.25
2023-01-13T15:56:31.765Z,100646.56
2023-01-13T15:58:58.733Z,100644.31
2023-01-13T16:01:25.808Z,100648.56
2023-01-13T16:03:52.829Z,100643.38
2023-01-13T16:06:23.426Z,100642.38
2023-01-13T16:08:50.428Z,100644.75
2023-01-13T16:11:17.392Z,100643.28
2023-01-13T16:13:44.252Z,100643.78
2023-01-13T16:16:19.301Z,100643.19
2023-01-13T16:18:46.764Z,100635.19
2023-01-13T16:21:14.596Z,100634.44
2023-01-13T16:23:41.802Z,100632.00
2023-01-13T16:26:18.348Z,100637.56
2023-01-13T16:28:45.678Z,100630.81
2023-01-13T16:31:26.814Z,100642.00
2023-01-13T16:33:54.246Z,100638.34
2023-01-13T16:36:22.672Z,100637.41
2023-01-13T16:38:51.844Z,100644.56
2023-01-13T16:41:22.417Z,100651.53
2023-01-13T16:43:49.368Z,100643.16
2023-01-13T16:46:28.183Z,100643.09
2023-01-13T16:49:01.305Z,100642.25
2023-01-13T16:51:28.554Z,100644.75
2023-01-13T16:53:55.409Z,100632.59
2023-01-13T16:56:28.440Z,100633.84
2023-01-13T16:58:58.453Z,100635.78
2023-01-13T17:01:31.360Z,100636.03
2023-01-13T17:03:59.159Z,100635.72
2023-01-13T17:06:32.318Z,100630.75
2023-01-13T17:09:07.600Z,100637.31
2023-01-13T17:11:34.783Z,100641.75
2023-01-13T17:14:07.309Z,100644.19
2023-01-13T17:16:46.940Z,100636.81
2023-01-13T17:19:13.983Z,100648.13
2023-01-13T17:21:41.273Z,100642.00
2023-01-13T17:24:09.861Z,100634.25
2023-01-13T17:26:37.883Z,100631.53
2023-01-13T17:29:06.759Z,100637.72
2023-01-13T17:31:35.260Z,100635.91
2023-01-13T17:34:03.476Z,100636.75
2023-01-13T17:36:31.164Z,100618.97
2023-01-13T17:38:58.613Z,100643.44
2023-01-13T17:41:25.782Z,100645.88
2023-01-13T17:43:53.531Z,100642.56
2023-01-13T17:46:22.719Z,100639.81
2023-01-13T17:48:51.413Z,100645.88
2023-01-13T17:51:19.744Z,100641.03
2023-01-13T17:53:46.854Z,100651.06
2023-01-13T17:56:15.272Z,100643.44
2023-01-13T17:58:42.161Z,100642.75
2023-01-13T18:01:13.561Z,100647.66
2023-01-13T18:03:40.452Z,100651.31
2023-01-13T18:06:11.352Z,100646.66
2023-01-13T18:08:38.285Z,100653.16
2023-01-13T18:11:05.334Z,100646.19
2023-01-13T18:13:34.947Z,100653.34
2023-01-13T18:16:13.299Z,100653.00
2023-01-13T18:18:42.256Z,100646.41
2023-01-13T18:21:38.040Z,100658.50
2023-01-13T18:24:24.717Z,100645.44
2023-01-13T18:27:10.463Z,100637.72
2023-01-13T18:29:37.390Z,100645.97
2023-01-13T18:32:04.535Z,100636.34
2023-01-13T18:34:31.811Z,100640.84
2023-01-13T18:36:58.693Z,100644.19
2023-01-13T18:39:25.541Z,100646.78
2023-01-13T18:42:11.021Z,100636.50
2023-01-13T18:44:38.026Z,100641.38
2023-01-13T18:47:04.938Z,100639.72
2023-01-13T18:49:31.952Z,100638.22
2023-01-13T18:51:58.914Z,100642.59
2023-01-13T18:54:25.845Z,100643.47
2023-01-13T18:56:52.864Z,100638.75
2023-01-13T18:59:19.742Z,100635.38
2023-01-13T19:01:46.649Z,100635.66
2023-01-13T19:04:16.939Z,100639.94
2023-01-13T19:06:49.337Z,100636.88
2023-01-13T19:09:18.070Z,100642.38
2023-01-13T19:11:46.971Z,100640.25
2023-01-13T19:14:34.198Z,100638.91
2023-01-13T19:17:02.827Z,100637.31
2023-01-13T19:19:32.162Z,100639.06
2023-01-13T19:21:59.100Z,100640.34
2023-01-13T19:24:26.219Z,100647.13
2023-01-13T19:26:54.730Z,100645.78
2023-01-13T19:29:21.773Z,100644.34
2023-01-13T19:31:48.872Z,100637.25
2023-01-13T19:34:15.989Z,100635.50
2023-01-13T19:36:43.099Z,100645.72
2023-01-13T19:39:10.368Z,100640.56
2023-01-13T19:41:56.111Z,100644.69
2023-01-13T19:44:41.898Z,100637.63
2023-01-13T19:47:08.788Z,100636.31
2023-01-13T19:49:35.744Z,100639.59
2023-01-13T19:52:02.624Z,100635.38
2023-01-13T19:54:29.580Z,100631.84
2023-01-13T19:56:56.502Z,100628.50
2023-01-13T19:59:29.182Z,100633.69
2023-01-13T20:01:59.603Z,100636.41
2023-01-13T20:04:38.487Z,100635.09
2023-01-13T20:07:06.634Z,100642.09
2023-01-13T20:09:35.793Z,100642.53
2023-01-13T20:12:09.113Z,100643.47
2023-01-13T20:14:36.157Z,100643.78
2023-01-13T20:17:03.202Z,100647.16
2023-01-13T20:19:30.061Z,100646.53
2023-01-13T20:21:56.980Z,100639.28
2023-01-13T20:24:26.172Z,100653.88
2023-01-13T20:26:54.569Z,100638.41
2023-01-13T20:29:22.346Z,100645.56
2023-01-13T20:31:50.620Z,100643.69
2023-01-13T20:34:20.436Z,100646.13
2023-01-13T20:36:49.221Z,100643.63
2023-01-13T20:39:26.726Z,100642.75
2023-01-13T20:42:13.009Z,100644.72
2023-01-13T20:44:39.933Z,100640.09
2023-01-13T20:47:07.380Z,100641.75
2023-01-13T20:49:36.304Z,100636.47
2023-01-13T20:52:09.330Z,100633.38
2023-01-13T20:54:40.644Z,100640.72
2023-01-13T20:57:10.062Z,100640.75
2023-01-13T20:59:38.461Z,100628.75
2023-01-13T21:02:07.861Z,100633.13
2023-01-13T21:04:34.747Z,100617.91
2023-01-13T21:07:01.685Z,100641.69
2023-01-13T21:09:29.409Z,100634.75
2023-01-13T21:12:14.969Z,100629.69
2023-01-13T21:15:00.498Z,100628.00
2023-01-13T21:17:46.131Z,100634.44
2023-01-13T21:20:14.764Z,100628.00
2023-01-13T21:22:48.995Z,100630.09
2023-01-13T21:25:18.207Z,100620.28
2023-01-13T21:27:45.239Z,100625.97
2023-01-13T21:30:15.617Z,100623.75
2023-01-13T21:32:44.300Z,100603.59
2023-01-13T21:35:12.236Z,100605.81
2023-01-13T21:37:40.594Z,100633.75
2023-01-13T21:40:11.257Z,100629.31
2023-01-13T21:42:56.873Z,100626.06
2023-01-13T21:45:42.233Z,100630.31
2023-01-13T21:48:09.273Z,100635.38
2023-01-13T21:50:37.959Z,100626.22
2023-01-13T21:53:05.337Z,100620.94
2023-01-13T21:55:32.986Z,100626.75
2023-01-13T21:58:20.143Z,100622.75
2023-01-13T22:00:49.248Z,100618.09
2023-01-13T22:03:18.577Z,100617.38
2023-01-13T22:05:46.412Z,100608.66
2023-01-13T22:08:13.731Z,100611.16
2023-01-13T22:11:10.072Z,100606.16
2023-01-13T22:13:57.152Z,100613.56
2023-01-13T22:16:25.579Z,100607.00
2023-01-13T22:18:52.649Z,100608.72
2023-01-13T22:21:20.085Z,100604.91
2023-01-13T22:23:47.236Z,100600.00
2023-01-13T22:26:14.064Z,100606.88
2023-01-13T22:28:42.840Z,100605.03
2023-01-13T22:31:15.381Z,100612.97
2023-01-13T22:33:43.205Z,100610.59
2023-01-13T22:36:10.267Z,100610.19
2023-01-13T22:38:37.266Z,100608.47
2023-01-13T22:41:06.832Z,100611.03
2023-01-13T22:43:35.281Z,100611.56
2023-01-13T22:46:08.107Z,100618.72
2023-01-13T22:48:35.826Z,100619.47
2023-01-13T22:51:07.884Z,100616.34
2023-01-13T22:53:36.011Z,100613.63
2023-01-13T22:56:03.089Z,100611.13
2023-01-13T22:58:30.488Z,100614.47
2023-01-13T23:01:10.447Z,100622.88
2023-01-13T23:03:37.944Z,100613.69
2023-01-13T23:06:05.881Z,100609.22
2023-01-13T23:08:34.064Z,100604.13
2023-01-13T23:11:03.717Z,100608.34
2023-01-13T23:13:30.587Z,100612.00
2023-01-13T23:16:05.533Z,100615.19
2023-01-13T23:18:32.743Z,100602.03
2023-01-13T23:21:08.282Z,100599.00
2023-01-13T23:23:35.530Z,100608.13
2023-01-13T23:26:04.127Z,100622.38
2023-01-13T23:28:33.359Z,100621.44
2023-01-13T23:31:00.548Z,100608.56
2023-01-13T23:33:27.473Z,100621.63
2023-01-13T23:36:04.169Z,100627.66
2023-01-13T23:38:31.825Z,100617.06
2023-01-13T23:40:59.277Z,100618.00
2023-01-13T23:43:27.203Z,100619.56
2023-01-13T23:46:02.504Z,100631.88
2023-01-13T23:48:29.678Z,100624.06
2023-01-13T23:51:00.940Z,100619.94
2023-01-13T23:53:33.505Z,100621.44
2023-01-13T23:56:02.105Z,100628.16
2023-01-13T23:58:29.923Z,100610.09
